sensor_id;sensor_type;location;lat;lon;timestamp;pressure;altitude;pressure_sealevel;temperature;humidity
73151;BME280;61354;50.758;6.106;2023-01-29T00:01:07;100614.25;;;-3.15;94.71
73151;BME280;61354;50.758;6.106;2023-01-29T00:03:33;100609.31;;;-3.18;94.78
73151;BME280;61354;50.758;6.106;2023-01-29T00:06:03;100609.88;;;-3.16;95.14
73151;BME280;61354;50.758;6.106;2023-01-29T00:08:36;100602.59;;;-3.04;94.81
73151;BME280;61354;50.758;6.106;2023-01-29T00:11:03;100599.16;;;-3.11;94.81
73151;BME280;61354;50.758;6.106;2023-01-29T00:13:29;100589.47;;;-3.07;94.59
73151;BME280;61354;50.758;6.106;2023-01-29T00:15:56;100596.09;;;-3.03;94.86
73151;BME280;61354;50.758;6.106;2023-01-29T00:18:22;100589.78;;;-3.15;94.86
73151;BME280;61354;50.758;6.106;2023-01-29T00:20:48;100580.00;;;-3.16;95.25
73151;BME280;61354;50.758;6.106;2023-01-29T00:23:13;100583.78;;;-3.17;94.96
73151;BME280;61354;50.758;6.106;2023-01-29T00:25:40;100583.53;;;-3.16;95.04
73151;BME280;61354;50.758;6.106;2023-01-29T00:28:06;100577.41;;;-3.11;94.90
73151;BME280;61354;50.758;6.106;2023-01-29T00:30:31;100577.28;;;-3.16;94.81
73151;BME280;61354;50.758;6.106;2023-01-29T00:32:57;100573.38;;;-3.20;95.45
73151;BME280;61354;50.758;6.106;2023-01-29T00:35:22;100565.56;;;-3.29;95.70
73151;BME280;61354;50.758;6.106;2023-01-29T00:37:48;100568.88;;;-3.27;95.24
73151;BME280;61354;50.758;6.106;2023-01-29T00:40:13;100565.56;;;-3.29;95.39
73151;BME280;61354;50.758;6.106;2023-01-29T00:42:39;100569.25;;;-3.23;94.81
73151;BME280;61354;50.758;6.106;2023-01-29T00:45:23;100560.59;;;-3.32;94.85
73151;BME280;61354;50.758;6.106;2023-01-29T00:47:49;100562.25;;;-3.31;95.10
73151;BME280;61354;50.758;6.106;2023-01-29T00:50:14;100563.31;;;-3.32;94.98
73151;BME280;61354;50.758;6.106;2023-01-29T00:52:40;100561.50;;;-3.38;94.74
73151;BME280;61354;50.758;6.106;2023-01-29T00:55:07;100556.00;;;-3.31;94.49
73151;BME280;61354;50.758;6.106;2023-01-29T00:57:33;100550.66;;;-3.38;94.49
73151;BME280;61354;50.758;6.106;2023-01-29T01:00:00;100554.91;;;-3.42;94.59
73151;BME280;61354;50.758;6.106;2023-01-29T01:02:26;100549.38;;;-3.35;94.96
73151;BME280;61354;50.758;6.106;2023-01-29T01:05:12;100544.47;;;-3.45;94.59
73151;BME280;61354;50.758;6.106;2023-01-29T01:07:46;100548.72;;;-3.49;94.93
73151;BME280;61354;50.758;6.106;2023-01-29T01:10:15;100546.50;;;-3.52;94.64
73151;BME280;61354;50.758;6.106;2023-01-29T01:13:03;100541.63;;;-3.50;94.37
73151;BME280;61354;50.758;6.106;2023-01-29T01:15:34;100546.25;;;-3.51;94.75
73151;BME280;61354;50.758;6.106;2023-01-29T01:18:01;100535.47;;;-3.57;94.90
73151;BME280;61354;50.758;6.106;2023-01-29T01:20:29;100540.06;;;-3.58;94.86
73151;BME280;61354;50.758;6.106;2023-01-29T01:22:55;100537.59;;;-3.59;94.91
73151;BME280;61354;50.758;6.106;2023-01-29T01:25:23;100540.44;;;-3.54;95.33
73151;BME280;61354;50.758;6.106;2023-01-29T01:27:56;100546.94;;;-3.55;95.22
73151;BME280;61354;50.758;6.106;2023-01-29T01:30:23;100548.84;;;-3.56;95.20
73151;BME280;61354;50.758;6.106;2023-01-29T01:32:49;100553.44;;;-3.56;95.02
73151;BME280;61354;50.758;6.106;2023-01-29T01:35:15;100550.97;;;-3.46;94.76
73151;BME280;61354;50.758;6.106;2023-01-29T01:37:41;100563.50;;;-3.45;94.14
73151;BME280;61354;50.758;6.106;2023-01-29T01:40:15;100563.03;;;-3.42;93.74
73151;BME280;61354;50.758;6.106;2023-01-29T01:42:49;100567.31;;;-3.34;93.66
73151;BME280;61354;50.758;6.106;2023-01-29T01:47:55;100551.41;;;-3.31;93.02
73151;BME280;61354;50.758;6.106;2023-01-29T01:50:39;100558.72;;;-3.31;93.24
73151;BME280;61354;50.758;6.106;2023-01-29T01:53:10;100546.03;;;-3.37;93.28
73151;BME280;61354;50.758;6.106;2023-01-29T01:55:40;100533.88;;;-3.46;93.58
73151;BME280;61354;50.758;6.106;2023-01-29T01:58:11;100531.22;;;-3.53;94.16
73151;BME280;61354;50.758;6.106;2023-01-29T02:00:40;100523.34;;;-3.55;94.39
73151;BME280;61354;50.758;6.106;2023-01-29T02:03:06;100528.84;;;-3.61;94.33
73151;BME280;61354;50.758;6.106;2023-01-29T02:05:53;100536.59;;;-3.46;94.43
73151;BME280;61354;50.758;6.106;2023-01-29T02:09:06;100528.38;;;-3.58;94.75
73151;BME280;61354;50.758;6.106;2023-01-29T02:11:50;100525.78;;;-3.65;94.82
73151;BME280;61354;50.758;6.106;2023-01-29T02:14:15;100535.13;;;-3.61;94.69
73151;BME280;61354;50.758;6.106;2023-01-29T02:16:41;100546.19;;;-3.62;94.99
73151;BME280;61354;50.758;6.106;2023-01-29T02:19:18;100540.44;;;-3.54;94.75
73151;BME280;61354;50.758;6.106;2023-01-29T02:22:05;100542.84;;;-3.46;94.47
73151;BME280;61354;50.758;6.106;2023-01-29T02:24:57;100538.97;;;-3.38;94.02
73151;BME280;61354;50.758;6.106;2023-01-29T02:28:00;100536.50;;;-3.40;93.66
73151;BME280;61354;50.758;6.106;2023-01-29T02:32:59;100542.84;;;-3.46;93.18
73151;BME280;61354;50.758;6.106;2023-01-29T02:35:33;100540.44;;;-3.54;93.85
73151;BME280;61354;50.758;6.106;2023-01-29T02:38:19;100544.47;;;-3.45;93.29
73151;BME280;61354;50.758;6.106;2023-01-29T02:41:12;100536.50;;;-3.40;93.32
73151;BME280;61354;50.758;6.106;2023-01-29T02:43:46;100536.22;;;-3.50;93.30
73151;BME280;61354;50.758;6.106;2023-01-29T02:49:26;100545.06;;;-3.55;94.24
73151;BME280;61354;50.758;6.106;2023-01-29T02:52:01;100561.91;;;-3.64;93.58
73151;BME280;61354;50.758;6.106;2023-01-29T02:54:40;100574.84;;;-3.66;93.74
73151;BME280;61354;50.758;6.106;2023-01-29T02:57:25;100579.00;;;-3.64;94.31
73151;BME280;61354;50.758;6.106;2023-01-29T03:00:02;100587.75;;;-3.62;93.94
73151;BME280;61354;50.758;6.106;2023-01-29T03:02:37;100582.81;;;-3.53;93.45
73151;BME280;61354;50.758;6.106;2023-01-29T03:05:11;100590.13;;;-3.54;93.14
73151;BME280;61354;50.758;6.106;2023-01-29T03:07:44;100593.69;;;-3.53;93.60
73151;BME280;61354;50.758;6.106;2023-01-29T03:10:41;100596.31;;;-3.46;93.16
73151;BME280;61354;50.758;6.106;2023-01-29T03:13:16;100594.56;;;-3.41;92.97
73151;BME280;61354;50.758;6.106;2023-01-29T03:15:47;100587.66;;;-3.55;93.00
73151;BME280;61354;50.758;6.106;2023-01-29T03:18:17;100583.13;;;-3.61;93.12
73151;BME280;61354;50.758;6.106;2023-01-29T03:20:51;100583.38;;;-3.63;93.09
73151;BME280;61354;50.758;6.106;2023-01-29T03:23:24;100586.91;;;-3.62;93.73
73151;BME280;61354;50.758;6.106;2023-01-29T03:25:57;100586.34;;;-3.64;93.47
73151;BME280;61354;50.758;6.106;2023-01-29T03:28:43;100587.66;;;-3.55;93.64
73151;BME280;61354;50.758;6.106;2023-01-29T03:31:28;100577.38;;;-3.65;92.75
73151;BME280;61354;50.758;6.106;2023-01-29T03:34:19;100564.25;;;-3.68;93.34
73151;BME280;61354;50.758;6.106;2023-01-29T03:36:55;100561.22;;;-3.78;93.86
73151;BME280;61354;50.758;6.106;2023-01-29T03:39:24;100557.94;;;-3.80;94.18
73151;BME280;61354;50.758;6.106;2023-01-29T03:47:25;100561.34;;;-3.85;95.05
73151;BME280;61354;50.758;6.106;2023-01-29T03:50:00;100564.88;;;-3.84;94.29
73151;BME280;61354;50.758;6.106;2023-01-29T03:55:42;100562.22;;;-3.91;94.47
73151;BME280;61354;50.758;6.106;2023-01-29T04:01:23;100576.94;;;-3.98;94.15
73151;BME280;61354;50.758;6.106;2023-01-29T04:03:54;100569.41;;;-3.96;94.33
73151;BME280;61354;50.758;6.106;2023-01-29T04:06:25;100577.16;;;-4.00;93.96
73151;BME280;61354;50.758;6.106;2023-01-29T04:09:02;100573.63;;;-4.01;93.71
73151;BME280;61354;50.758;6.106;2023-01-29T04:11:30;100569.03;;;-4.00;93.80
73151;BME280;61354;50.758;6.106;2023-01-29T04:13:56;100554.50;;;-4.06;93.85
73151;BME280;61354;50.758;6.106;2023-01-29T04:16:30;100559.53;;;-4.09;94.64
73151;BME280;61354;50.758;6.106;2023-01-29T04:18:57;100551.63;;;-4.11;94.63
73151;BME280;61354;50.758;6.106;2023-01-29T04:21:24;100555.75;;;-4.08;94.58
73151;BME280;61354;50.758;6.106;2023-01-29T04:23:50;100552.47;;;-4.10;94.42
73151;BME280;61354;50.758;6.106;2023-01-29T04:31:42;100540.03;;;-4.18;94.48
73151;BME280;61354;50.758;6.106;2023-01-29T04:37:01;100525.03;;;-4.20;94.63
73151;BME280;61354;50.758;6.106;2023-01-29T04:39:47;100527.44;;;-4.12;94.47
73151;BME280;61354;50.758;6.106;2023-01-29T04:55:20;100502.13;;;-4.25;94.66
73151;BME280;61354;50.758;6.106;2023-01-29T04:58:02;100502.88;;;-4.17;94.13
73151;BME280;61354;50.758;6.106;2023-01-29T05:00:39;100503.56;;;-4.22;94.51
73151;BME280;61354;50.758;6.106;2023-01-29T05:03:06;100505.91;;;-4.26;94.40
73151;BME280;61354;50.758;6.106;2023-01-29T05:05:34;100504.84;;;-4.25;94.48
73151;BME280;61354;50.758;6.106;2023-01-29T05:08:01;100498.84;;;-4.27;94.20
73151;BME280;61354;50.758;6.106;2023-01-29T05:10:28;100498.34;;;-4.23;94.61
73151;BME280;61354;50.758;6.106;2023-01-29T05:13:01;100505.06;;;-4.26;93.90
73151;BME280;61354;50.758;6.106;2023-01-29T05:15:37;100498.66;;;-4.32;94.24
73151;BME280;61354;50.758;6.106;2023-01-29T05:18:04;100498.84;;;-4.27;93.73
73151;BME280;61354;50.758;6.106;2023-01-29T05:20:38;100495.13;;;-4.32;94.15
73151;BME280;61354;50.758;6.106;2023-01-29T05:23:08;100509.50;;;-4.32;94.21
73151;BME280;61354;50.758;6.106;2023-01-29T05:25:35;100506.22;;;-4.34;94.16
73151;BME280;61354;50.758;6.106;2023-01-29T05:28:00;100500.16;;;-4.36;94.07
73151;BME280;61354;50.758;6.106;2023-01-29T05:30:37;100493.63;;;-4.28;94.33
73151;BME280;61354;50.758;6.106;2023-01-29T05:33:09;100494.31;;;-4.33;94.66
73151;BME280;61354;50.758;6.106;2023-01-29T05:35:36;100494.53;;;-4.34;94.72
73151;BME280;61354;50.758;6.106;2023-01-29T05:38:02;100498.44;;;-4.30;94.92
73151;BME280;61354;50.758;6.106;2023-01-29T05:40:28;100501.38;;;-4.32;94.75
73151;BME280;61354;50.758;6.106;2023-01-29T05:42:53;100505.91;;;-4.26;94.18
73151;BME280;61354;50.758;6.106;2023-01-29T05:45:19;100506.28;;;-4.22;94.11
73151;BME280;61354;50.758;6.106;2023-01-29T05:47:45;100497.53;;;-4.24;94.38
73151;BME280;61354;50.758;6.106;2023-01-29T05:50:12;100497.34;;;-4.11;94.45
73151;BME280;61354;50.758;6.106;2023-01-29T05:52:38;100502.06;;;-4.18;94.20
73151;BME280;61354;50.758;6.106;2023-01-29T05:55:04;100503.72;;;-4.17;94.64
73151;BME280;61354;50.758;6.106;2023-01-29T05:57:30;100501.00;;;-4.17;94.44
73151;BME280;61354;50.758;6.106;2023-01-29T05:59:56;100495.25;;;-4.09;94.72
73151;BME280;61354;50.758;6.106;2023-01-29T06:02:21;100501.50;;;-4.08;94.36
73151;BME280;61354;50.758;6.106;2023-01-29T06:04:49;100497.72;;;-4.07;94.40
73151;BME280;61354;50.758;6.106;2023-01-29T06:07:14;100500.63;;;-4.02;94.06
73151;BME280;61354;50.758;6.106;2023-01-29T06:09:40;100498.63;;;-3.95;94.30
73151;BME280;61354;50.758;6.106;2023-01-29T06:12:05;100497.78;;;-3.95;94.27
73151;BME280;61354;50.758;6.106;2023-01-29T06:14:32;100492.16;;;-3.94;93.93
73151;BME280;61354;50.758;6.106;2023-01-29T06:16:57;100492.28;;;-3.89;94.14
73151;BME280;61354;50.758;6.106;2023-01-29T06:19:23;100486.63;;;-3.87;94.56
73151;BME280;61354;50.758;6.106;2023-01-29T06:21:49;100475.69;;;-3.81;94.22
73151;BME280;61354;50.758;6.106;2023-01-29T06:24:14;100479.44;;;-3.82;93.84
73151;BME280;61354;50.758;6.106;2023-01-29T06:26:40;100470.38;;;-3.76;94.14
73151;BME280;61354;50.758;6.106;2023-01-29T06:29:05;100471.47;;;-3.77;94.38
73151;BME280;61354;50.758;6.106;2023-01-29T06:31:31;100474.06;;;-3.70;94.62
73151;BME280;61354;50.758;6.106;2023-01-29T06:33:57;100485.16;;;-3.71;94.10
73151;BME280;61354;50.758;6.106;2023-01-29T06:36:22;100489.88;;;-3.67;93.81
73151;BME280;61354;50.758;6.106;2023-01-29T06:38:48;100501.00;;;-3.68;94.18
73151;BME280;61354;50.758;6.106;2023-01-29T06:41:16;100518.09;;;-3.68;93.77
73151;BME280;61354;50.758;6.106;2023-01-29T06:43:45;100526.41;;;-3.51;93.83
73151;BME280;61354;50.758;6.106;2023-01-29T06:46:11;100526.47;;;-3.39;93.97
73151;BME280;61354;50.758;6.106;2023-01-29T06:48:36;100523.50;;;-3.38;94.01
73151;BME280;61354;50.758;6.106;2023-01-29T06:51:07;100539.91;;;-3.33;94.16
73151;BME280;61354;50.758;6.106;2023-01-29T06:53:33;100547.72;;;-3.25;94.33
73151;BME280;61354;50.758;6.106;2023-01-29T06:55:59;100557.34;;;-3.10;93.12
73151;BME280;61354;50.758;6.106;2023-01-29T06:58:25;100566.81;;;-3.01;93.03
73151;BME280;61354;50.758;6.106;2023-01-29T07:00:50;100570.72;;;-2.97;92.91
73151;BME280;61354;50.758;6.106;2023-01-29T07:03:16;100568.25;;;-2.98;93.31
73151;BME280;61354;50.758;6.106;2023-01-29T07:05:42;100562.22;;;-2.89;93.45
73151;BME280;61354;50.758;6.106;2023-01-29T07:08:07;100569.19;;;-2.93;93.49
73151;BME280;61354;50.758;6.106;2023-01-29T07:10:34;100566.13;;;-2.85;93.25
73151;BME280;61354;50.758;6.106;2023-01-29T07:13:00;100561.75;;;-2.74;92.98
73151;BME280;61354;50.758;6.106;2023-01-29T07:15:26;100555.84;;;-2.71;92.78
73151;BME280;61354;50.758;6.106;2023-01-29T07:17:59;100551.38;;;-2.77;92.89
73151;BME280;61354;50.758;6.106;2023-01-29T07:20:26;100546.28;;;-2.73;93.46
73151;BME280;61354;50.758;6.106;2023-01-29T07:22:52;100545.13;;;-2.78;93.21
73151;BME280;61354;50.758;6.106;2023-01-29T07:25:19;100531.72;;;-2.79;93.27
73151;BME280;61354;50.758;6.106;2023-01-29T07:27:44;100519.09;;;-2.73;93.52
73151;BME280;61354;50.758;6.106;2023-01-29T07:30:10;100503.13;;;-2.70;93.02
73151;BME280;61354;50.758;6.106;2023-01-29T07:32:36;100505.03;;;-2.70;93.11
73151;BME280;61354;50.758;6.106;2023-01-29T07:35:01;100514.84;;;-2.69;93.74
73151;BME280;61354;50.758;6.106;2023-01-29T07:37:27;100513.53;;;-2.67;93.70
73151;BME280;61354;50.758;6.106;2023-01-29T07:39:52;100513.53;;;-2.67;93.70
73151;BME280;61354;50.758;6.106;2023-01-29T07:42:18;100516.50;;;-2.68;93.27
73151;BME280;61354;50.758;6.106;2023-01-29T07:44:43;100513.53;;;-2.67;93.72
73151;BME280;61354;50.758;6.106;2023-01-29T07:47:09;100507.88;;;-2.65;93.45
73151;BME280;61354;50.758;6.106;2023-01-29T07:49:35;100508.69;;;-2.65;93.53
73151;BME280;61354;50.758;6.106;2023-01-29T07:52:01;100509.75;;;-2.66;93.10
73151;BME280;61354;50.758;6.106;2023-01-29T07:54:26;100511.06;;;-2.68;92.90
73151;BME280;61354;50.758;6.106;2023-01-29T07:56:52;100508.91;;;-2.66;92.84
73151;BME280;61354;50.758;6.106;2023-01-29T07:59:17;100520.16;;;-2.63;92.70
73151;BME280;61354;50.758;6.106;2023-01-29T08:01:43;100525.94;;;-2.59;92.28
73151;BME280;61354;50.758;6.106;2023-01-29T08:04:08;100533.38;;;-2.66;92.10
73151;BME280;61354;50.758;6.106;2023-01-29T08:06:34;100531.84;;;-2.62;92.52
73151;BME280;61354;50.758;6.106;2023-01-29T08:08:59;100536.00;;;-2.60;92.59
73151;BME280;61354;50.758;6.106;2023-01-29T08:11:25;100528.09;;;-2.61;92.54
73151;BME280;61354;50.758;6.106;2023-01-29T08:13:50;100528.91;;;-2.61;92.51
73151;BME280;61354;50.758;6.106;2023-01-29T08:16:16;100533.03;;;-2.58;92.71
73151;BME280;61354;50.758;6.106;2023-01-29T08:18:41;100526.53;;;-2.57;91.91
73151;BME280;61354;50.758;6.106;2023-01-29T08:21:10;100513.88;;;-2.52;92.32
73151;BME280;61354;50.758;6.106;2023-01-29T08:23:36;100516.72;;;-2.58;92.47
73151;BME280;61354;50.758;6.106;2023-01-29T08:26:02;100533.75;;;-2.51;92.58
73151;BME280;61354;50.758;6.106;2023-01-29T08:28:27;100523.94;;;-2.52;92.06
73151;BME280;61354;50.758;6.106;2023-01-29T08:30:53;100520.72;;;-2.49;92.05
73151;BME280;61354;50.758;6.106;2023-01-29T08:33:19;100517.53;;;-2.58;92.41
73151;BME280;61354;50.758;6.106;2023-01-29T08:35:48;100519.53;;;-2.53;92.28
73151;BME280;61354;50.758;6.106;2023-01-29T08:38:14;100521.22;;;-2.52;92.18
73151;BME280;61354;50.758;6.106;2023-01-29T08:40:40;100515.19;;;-2.54;92.83
73151;BME280;61354;50.758;6.106;2023-01-29T08:43:07;100521.22;;;-2.52;92.43
73151;BME280;61354;50.758;6.106;2023-01-29T08:45:35;100524.06;;;-2.47;92.56
73151;BME280;61354;50.758;6.106;2023-01-29T08:48:00;100531.75;;;-2.44;92.50
73151;BME280;61354;50.758;6.106;2023-01-29T08:50:26;100530.91;;;-2.44;92.33
73151;BME280;61354;50.758;6.106;2023-01-29T08:52:57;100518.25;;;-2.39;92.26
73151;BME280;61354;50.758;6.106;2023-01-29T08:55:23;100527.69;;;-2.41;91.92
73151;BME280;61354;50.758;6.106;2023-01-29T08:57:49;100537.84;;;-2.37;92.09
73151;BME280;61354;50.758;6.106;2023-01-29T09:00:15;100528.75;;;-2.31;91.93
73151;BME280;61354;50.758;6.106;2023-01-29T09:02:40;100527.13;;;-2.32;91.95
73151;BME280;61354;50.758;6.106;2023-01-29T09:05:06;100524.41;;;-2.32;91.93
73151;BME280;61354;50.758;6.106;2023-01-29T09:07:32;100518.59;;;-2.23;92.19
73151;BME280;61354;50.758;6.106;2023-01-29T09:09:57;100518.09;;;-2.20;92.06
73151;BME280;61354;50.758;6.106;2023-01-29T09:12:23;100508.50;;;-2.11;92.41
73151;BME280;61354;50.758;6.106;2023-01-29T09:14:49;100507.06;;;-2.02;91.94
73151;BME280;61354;50.758;6.106;2023-01-29T09:17:14;100509.00;;;-1.86;91.80
73151;BME280;61354;50.758;6.106;2023-01-29T09:19:40;100504.38;;;-1.85;91.41
73151;BME280;61354;50.758;6.106;2023-01-29T09:22:05;100498.13;;;-1.86;92.26
73151;BME280;61354;50.758;6.106;2023-01-29T09:24:31;100503.91;;;-1.82;91.99
73151;BME280;61354;50.758;6.106;2023-01-29T09:26:59;100497.81;;;-1.72;91.72
73151;BME280;61354;50.758;6.106;2023-01-29T09:29:25;100483.81;;;-1.64;91.77
73151;BME280;61354;50.758;6.106;2023-01-29T09:31:50;100483.81;;;-1.64;91.78
73151;BME280;61354;50.758;6.106;2023-01-29T09:34:16;100493.38;;;-1.62;91.66
73151;BME280;61354;50.758;6.106;2023-01-29T09:36:41;100498.03;;;-1.45;91.18
73151;BME280;61354;50.758;6.106;2023-01-29T09:39:07;100498.88;;;-1.45;90.90
73151;BME280;61354;50.758;6.106;2023-01-29T09:47:05;100484.59;;;-1.35;90.94
73151;BME280;61354;50.758;6.106;2023-01-29T09:49:39;100482.53;;;-1.45;90.58
73151;BME280;61354;50.758;6.106;2023-01-29T09:52:16;100476.00;;;-1.44;90.86
73151;BME280;61354;50.758;6.106;2023-01-29T09:57:24;100471.94;;;-1.41;90.12
73151;BME280;61354;50.758;6.106;2023-01-29T09:59:50;100475.75;;;-1.42;90.81
73151;BME280;61354;50.758;6.106;2023-01-29T10:10:41;100455.72;;;-1.36;90.83
73151;BME280;61354;50.758;6.106;2023-01-29T10:12:51;100467.03;;;-1.28;90.97
73151;BME280;61354;50.758;6.106;2023-01-29T10:15:37;100460.56;;;-1.21;90.08
73151;BME280;61354;50.758;6.106;2023-01-29T10:18:14;100460.91;;;-1.18;90.92
73151;BME280;61354;50.758;6.106;2023-01-29T10:20:49;100463.38;;;-1.16;90.43
73151;BME280;61354;50.758;6.106;2023-01-29T10:25:47;100450.34;;;-1.14;89.52
73151;BME280;61354;50.758;6.106;2023-01-29T10:28:26;100442.22;;;-1.09;90.83
73151;BME280;61354;50.758;6.106;2023-01-29T10:30:58;100443.38;;;-1.05;90.86
73151;BME280;61354;50.758;6.106;2023-01-29T10:33:36;100441.06;;;-0.96;90.64
73151;BME280;61354;50.758;6.106;2023-01-29T10:36:07;100439.41;;;-0.97;90.48
73151;BME280;61354;50.758;6.106;2023-01-29T10:52:12;100418.88;;;-0.66;90.32
73151;BME280;61354;50.758;6.106;2023-01-29T11:02:45;100409.22;;;-0.52;88.74
73151;BME280;61354;50.758;6.106;2023-01-29T11:05:48;100414.19;;;-0.49;89.15
73151;BME280;61354;50.758;6.106;2023-01-29T11:08:21;100411.47;;;-0.49;88.60
73151;BME280;61354;50.758;6.106;2023-01-29T11:11:06;100405.25;;;-0.44;88.75
73151;BME280;61354;50.758;6.106;2023-01-29T11:16:11;100400.72;;;-0.34;88.79
73151;BME280;61354;50.758;6.106;2023-01-29T11:18:56;100410.66;;;-0.22;88.84
73151;BME280;61354;50.758;6.106;2023-01-29T11:21:23;100399.50;;;-0.21;87.90
73151;BME280;61354;50.758;6.106;2023-01-29T11:23:49;100398.22;;;-0.13;88.36
73151;BME280;61354;50.758;6.106;2023-01-29T11:26:20;100393.88;;;-0.09;88.17
73151;BME280;61354;50.758;6.106;2023-01-29T11:28:49;100392.84;;;-0.08;87.85
73151;BME280;61354;50.758;6.106;2023-01-29T11:31:26;100388.19;;;-0.08;87.92
73151;BME280;61354;50.758;6.106;2023-01-29T11:34:03;100383.88;;;-0.04;87.18
73151;BME280;61354;50.758;6.106;2023-01-29T11:36:37;100387.47;;;0.02;86.86
73151;BME280;61354;50.758;6.106;2023-01-29T11:39:23;100383.13;;;0.06;86.65
73151;BME280;61354;50.758;6.106;2023-01-29T11:41:53;100379.31;;;0.07;86.42
73151;BME280;61354;50.758;6.106;2023-01-29T11:49:43;100386.34;;;-0.02;86.83
73151;BME280;61354;50.758;6.106;2023-01-29T11:52:11;100373.81;;;0.02;86.69
73151;BME280;61354;50.758;6.106;2023-01-29T11:57:33;100369.84;;;0.15;87.45
73151;BME280;61354;50.758;6.106;2023-01-29T12:00:03;100358.91;;;0.15;86.55
73151;BME280;61354;50.758;6.106;2023-01-29T12:02:37;100351.22;;;0.12;86.78
73151;BME280;61354;50.758;6.106;2023-01-29T12:05:25;100353.19;;;0.16;86.69
73151;BME280;61354;50.758;6.106;2023-01-29T12:07:53;100346.66;;;0.17;86.92
73151;BME280;61354;50.758;6.106;2023-01-29T12:10:35;100345.91;;;0.27;86.53
73151;BME280;61354;50.758;6.106;2023-01-29T12:15:45;100316.72;;;0.33;86.25
73151;BME280;61354;50.758;6.106;2023-01-29T12:18:36;100315.38;;;0.35;86.50
73151;BME280;61354;50.758;6.106;2023-01-29T12:21:12;100300.94;;;0.40;86.06
73151;BME280;61354;50.758;6.106;2023-01-29T12:23:44;100293.06;;;0.48;86.56
73151;BME280;61354;50.758;6.106;2023-01-29T12:26:24;100286.78;;;0.48;86.50
73151;BME280;61354;50.758;6.106;2023-01-29T12:35:14;100244.19;;;0.52;86.27
73151;BME280;61354;50.758;6.106;2023-01-29T12:37:59;100235.44;;;0.50;86.00
73151;BME280;61354;50.758;6.106;2023-01-29T12:40:40;100233.25;;;0.57;86.92
73151;BME280;61354;50.758;6.106;2023-01-29T12:43:30;100234.94;;;0.58;87.26
73151;BME280;61354;50.758;6.106;2023-01-29T12:45:58;100219.06;;;0.60;87.04
73151;BME280;61354;50.758;6.106;2023-01-29T12:48:38;100217.72;;;0.63;86.97
73151;BME280;61354;50.758;6.106;2023-01-29T12:51:10;100216.91;;;0.62;86.46
73151;BME280;61354;50.758;6.106;2023-01-29T12:53:43;100209.81;;;0.66;86.91
73151;BME280;61354;50.758;6.106;2023-01-29T12:56:17;100212.00;;;0.69;87.22
73151;BME280;61354;50.758;6.106;2023-01-29T12:58:46;100206.53;;;0.69;86.76
73151;BME280;61354;50.758;6.106;2023-01-29T13:01:26;100197.81;;;0.67;86.68
73151;BME280;61354;50.758;6.106;2023-01-29T13:04:08;100195.88;;;0.63;85.96
73151;BME280;61354;50.758;6.106;2023-01-29T13:06:44;100200.53;;;0.67;86.43
73151;BME280;61354;50.758;6.106;2023-01-29T13:09:16;100192.34;;;0.67;85.98
73151;BME280;61354;50.758;6.106;2023-01-29T13:11:55;100189.31;;;0.64;85.98
73151;BME280;61354;50.758;6.106;2023-01-29T13:14:35;100182.22;;;0.68;86.56
73151;BME280;61354;50.758;6.106;2023-01-29T13:17:11;100188.78;;;0.72;86.43
73151;BME280;61354;50.758;6.106;2023-01-29T13:19:49;100183.06;;;0.79;86.39
73151;BME280;61354;50.758;6.106;2023-01-29T13:22:22;100173.50;;;0.81;86.44
73151;BME280;61354;50.758;6.106;2023-01-29T13:24:49;100173.00;;;0.89;86.96
73151;BME280;61354;50.758;6.106;2023-01-29T13:27:21;100172.47;;;0.92;86.21
73151;BME280;61354;50.758;6.106;2023-01-29T13:29:47;100171.66;;;0.92;85.08
73151;BME280;61354;50.758;6.106;2023-01-29T13:32:19;100169.75;;;0.97;85.40
73151;BME280;61354;50.758;6.106;2023-01-29T13:34:47;100156.59;;;0.99;85.23
73151;BME280;61354;50.758;6.106;2023-01-29T13:39:48;100162.38;;;1.03;85.36
73151;BME280;61354;50.758;6.106;2023-01-29T13:42:18;100154.44;;;0.96;84.29
73151;BME280;61354;50.758;6.106;2023-01-29T13:44:53;100156.91;;;1.03;84.99
73151;BME280;61354;50.758;6.106;2023-01-29T13:47:24;100138.84;;;1.02;84.91
73151;BME280;61354;50.758;6.106;2023-01-29T13:52:40;100129.00;;;1.06;85.24
73151;BME280;61354;50.758;6.106;2023-01-29T14:05:43;100102.75;;;1.10;83.51
73151;BME280;61354;50.758;6.106;2023-01-29T14:08:53;100115.91;;;1.13;82.77
73151;BME280;61354;50.758;6.106;2023-01-29T14:13:47;100130.94;;;1.11;83.35
73151;BME280;61354;50.758;6.106;2023-01-29T14:18:46;100144.56;;;0.90;81.89
73151;BME280;61354;50.758;6.106;2023-01-29T14:23:49;100147.03;;;0.97;82.94
73151;BME280;61354;50.758;6.106;2023-01-29T14:26:43;100141.03;;;1.00;83.50
73151;BME280;61354;50.758;6.106;2023-01-29T14:31:52;100141.00;;;0.95;82.82
73151;BME280;61354;50.758;6.106;2023-01-29T14:36:50;100137.22;;;1.01;84.06
73151;BME280;61354;50.758;6.106;2023-01-29T14:39:42;100138.28;;;0.90;83.43
73151;BME280;61354;50.758;6.106;2023-01-29T14:42:28;100139.88;;;0.81;83.30
73151;BME280;61354;50.758;6.106;2023-01-29T14:49:58;100145.94;;;0.93;84.23
73151;BME280;61354;50.758;6.106;2023-01-29T14:52:32;100136.91;;;0.92;84.64
73151;BME280;61354;50.758;6.106;2023-01-29T14:55:04;100141.00;;;0.90;84.12
73151;BME280;61354;50.758;6.106;2023-01-29T14:57:32;100136.63;;;0.89;83.58
73151;BME280;61354;50.758;6.106;2023-01-29T15:00:00;100142.91;;;0.84;84.18
73151;BME280;61354;50.758;6.106;2023-01-29T15:02:37;100145.34;;;0.81;84.13
73151;BME280;61354;50.758;6.106;2023-01-29T15:05:09;100150.81;;;0.76;84.41
73151;BME280;61354;50.758;6.106;2023-01-29T15:07:40;100151.59;;;0.66;83.55
73151;BME280;61354;50.758;6.106;2023-01-29T15:10:16;100161.47;;;0.72;84.54
73151;BME280;61354;50.758;6.106;2023-01-29T15:15:35;100154.06;;;0.67;84.70
73151;BME280;61354;50.758;6.106;2023-01-29T15:22:55;100143.66;;;0.64;85.61
73151;BME280;61354;50.758;6.106;2023-01-29T15:25:21;100154.59;;;0.64;85.93
73151;BME280;61354;50.758;6.106;2023-01-29T15:27:47;100158.94;;;0.60;85.35
73151;BME280;61354;50.758;6.106;2023-01-29T15:30:51;100147.50;;;0.63;85.43
73151;BME280;61354;50.758;6.106;2023-01-29T15:33:10;100148.53;;;0.57;85.99
73151;BME280;61354;50.758;6.106;2023-01-29T15:35:40;100152.34;;;0.51;85.63